Time;durP1;ratioP1;P1;durP2;ratioP2;P2;SDS_P1;SDS_P2;PMS_P1;PMS_P2;Temp;Humidity;BMP_temperature;BMP_pressure;BME280_temperature;BME280_humidity;BME280_pressure;Samples;Min_cycle;Max_cycle;Signal;HPM_P1;HPM_P2
2022/11/03 00:00:27;;;;;;;14.35;6.38;;;11.60;99.90;;;;;;4972456;28;20637;-75
2022/11/03 00:03:17;;;;;;;13.65;6.70;;;11.60;99.90;;;;;;4991734;28;20223;-76
2022/11/03 00:06:06;;;;;;;12.27;6.50;;;11.60;99.90;;;;;;4980614;28;20258;-76
2022/11/03 00:08:58;;;;;;;14.70;6.85;;;11.60;99.90;;;;;;4978130;28;20693;-76
2022/11/03 00:11:49;;;;;;;13.20;6.50;;;11.60;99.90;;;;;;4982380;28;20219;-76
2022/11/03 00:14:38;;;;;;;11.85;6.05;;;11.60;99.90;;;;;;4986260;28;20226;-76
2022/11/03 00:17:27;;;;;;;13.90;5.47;;;11.50;99.90;;;;;;4999436;28;20219;-76
2022/11/03 00:20:17;;;;;;;14.02;5.90;;;11.40;99.90;;;;;;4983866;28;20302;-81
2022/11/03 00:23:05;;;;;;;13.82;5.78;;;11.40;99.90;;;;;;4985457;28;20293;-76
2022/11/03 00:25:55;;;;;;;15.73;5.78;;;11.40;99.90;;;;;;4983708;28;20231;-76
2022/11/03 00:28:45;;;;;;;15.50;5.97;;;11.50;99.90;;;;;;4988827;28;20230;-76
2022/11/03 00:31:35;;;;;;;12.35;5.53;;;11.50;99.90;;;;;;4983129;28;20790;-76
2022/11/03 00:34:24;;;;;;;12.70;5.90;;;11.30;99.90;;;;;;4987998;28;20253;-76
2022/11/03 00:37:14;;;;;;;10.07;5.22;;;11.30;99.90;;;;;;4989263;28;20223;-76
2022/11/03 00:40:03;;;;;;;8.23;4.88;;;11.20;99.90;;;;;;4969537;28;20250;-76
2022/11/03 00:42:51;;;;;;;10.93;5.30;;;11.10;99.90;;;;;;4984186;28;20226;-77
2022/11/03 00:45:40;;;;;;;10.98;5.30;;;11.10;99.90;;;;;;4986367;28;20307;-75
2022/11/03 00:48:32;;;;;;;11.18;5.13;;;11.20;99.90;;;;;;4983324;28;20989;-76
2022/11/03 00:51:22;;;;;;;10.98;5.35;;;11.10;99.90;;;;;;4986056;28;20758;-76
2022/11/03 00:54:13;;;;;;;13.57;5.15;;;11.00;99.90;;;;;;4986737;28;20369;-77
2022/11/03 00:57:01;;;;;;;14.43;5.07;;;11.10;99.90;;;;;;4983960;28;20729;-77
2022/11/03 00:59:50;;;;;;;12.55;4.93;;;11.00;99.90;;;;;;4998338;28;20258;-76
2022/11/03 01:02:39;;;;;;;8.35;4.20;;;11.10;99.90;;;;;;4978599;28;20223;-77
2022/11/03 01:08:35;;;;;;;15.35;5.05;;;11.10;99.90;;;;;;4985312;28;20719;-77
2022/11/03 01:14:41;;;;;;;10.77;4.30;;;11.00;99.90;;;;;;4969850;28;20706;-76
2022/11/03 01:17:30;;;;;;;14.85;4.25;;;11.00;99.90;;;;;;4982167;28;20306;-77
2022/11/03 01:20:19;;;;;;;11.05;4.95;;;10.90;99.90;;;;;;4988856;28;20274;-77
2022/11/03 01:23:07;;;;;;;10.65;4.20;;;11.00;99.90;;;;;;4973592;28;20254;-79
2022/11/03 01:25:56;;;;;;;9.55;4.18;;;10.90;99.90;;;;;;4985888;28;20230;-78
2022/11/03 01:28:47;;;;;;;13.82;4.55;;;10.80;99.90;;;;;;4988052;28;20313;-77
2022/11/03 01:31:36;;;;;;;12.15;4.65;;;10.80;99.90;;;;;;4981549;28;20353;-77
2022/11/03 01:34:25;;;;;;;13.20;4.45;;;10.80;99.90;;;;;;4984201;28;20233;-78
2022/11/03 01:37:14;;;;;;;6.93;4.18;;;10.80;99.90;;;;;;4984888;28;20234;-77
2022/11/03 01:40:02;;;;;;;14.82;4.57;;;10.70;99.90;;;;;;4986158;28;20261;-77
2022/11/03 01:42:51;;;;;;;9.40;4.35;;;10.70;99.90;;;;;;4986258;28;20227;-78
2022/11/03 01:45:41;;;;;;;11.13;4.70;;;10.70;99.90;;;;;;4986949;28;20633;-77
2022/11/03 01:48:32;;;;;;;8.48;4.05;;;10.60;99.90;;;;;;4984420;28;20342;-78
2022/11/03 01:51:23;;;;;;;10.23;4.18;;;10.70;99.90;;;;;;4984272;28;21856;-77
2022/11/03 01:54:18;;;;;;;11.43;4.60;;;10.60;99.90;;;;;;4979049;28;20952;-77
2022/11/03 01:57:11;;;;;;;12.27;5.35;;;10.60;99.90;;;;;;4980765;28;20226;-79
2022/11/03 02:00:01;;;;;;;13.07;4.68;;;10.60;99.90;;;;;;4981470;28;20873;-77
2022/11/03 02:03:01;;;;;;;9.18;4.72;;;10.70;99.90;;;;;;4983561;28;20225;-78
2022/11/03 02:05:52;;;;;;;9.45;4.28;;;10.70;99.90;;;;;;4971153;28;20226;-78
2022/11/03 02:08:48;;;;;;;9.18;4.82;;;10.60;99.90;;;;;;4985132;28;20219;-77
2022/11/03 02:14:49;;;;;;;12.93;4.95;;;10.60;99.90;;;;;;4985887;28;20231;-77
2022/11/03 02:17:40;;;;;;;16.50;5.43;;;10.50;99.90;;;;;;4970990;28;20258;-78
2022/11/03 02:20:32;;;;;;;15.63;5.57;;;10.50;99.90;;;;;;4983874;28;20237;-78
2022/11/03 02:23:26;;;;;;;16.27;5.63;;;10.40;99.90;;;;;;4984150;28;20574;-77
2022/11/03 02:26:17;;;;;;;15.00;6.05;;;10.40;99.90;;;;;;4984683;28;20335;-76
2022/11/03 02:29:05;;;;;;;13.93;6.13;;;10.40;99.90;;;;;;4984533;28;20266;-75
2022/11/03 02:32:00;;;;;;;12.52;5.55;;;10.40;99.90;;;;;;4965632;28;20772;-76
2022/11/03 02:34:55;;;;;;;11.68;6.18;;;10.40;99.90;;;;;;4983103;28;20211;-75
2022/11/03 02:37:48;;;;;;;17.25;6.55;;;10.40;99.90;;;;;;4973872;28;20218;-78
2022/11/03 02:40:45;;;;;;;16.58;6.38;;;10.30;99.90;;;;;;4982173;28;20222;-77
2022/11/03 02:43:35;;;;;;;17.83;6.68;;;10.30;99.90;;;;;;4981651;28;20699;-78
2022/11/03 02:46:26;;;;;;;13.98;6.72;;;10.20;99.90;;;;;;4982099;28;20226;-78
2022/11/03 02:49:15;;;;;;;12.55;6.80;;;10.30;99.90;;;;;;4986315;28;20760;-77
2022/11/03 02:52:05;;;;;;;16.42;6.95;;;10.30;99.90;;;;;;4988849;28;20642;-79
2022/11/03 02:54:56;;;;;;;16.52;7.43;;;10.40;99.90;;;;;;4985344;28;20230;-77
2022/11/03 02:57:51;;;;;;;13.43;6.45;;;10.30;99.90;;;;;;4974787;28;21106;-77
2022/11/03 03:00:46;;;;;;;12.15;6.78;;;10.40;99.90;;;;;;4978966;28;20268;-77
2022/11/03 03:03:40;;;;;;;15.07;7.15;;;10.30;99.90;;;;;;4980433;28;20222;-77
2022/11/03 03:06:33;;;;;;;14.02;6.82;;;10.40;99.90;;;;;;4981107;28;20226;-79
2022/11/03 03:09:26;;;;;;;16.88;7.45;;;10.40;99.90;;;;;;4977215;28;20229;-77
2022/11/03 03:12:17;;;;;;;14.38;6.82;;;10.40;99.90;;;;;;4982090;28;20294;-78
2022/11/03 03:15:08;;;;;;;15.05;7.38;;;10.30;99.90;;;;;;4978923;28;20237;-78
2022/11/03 03:18:04;;;;;;;17.05;8.02;;;10.20;99.90;;;;;;4983977;28;20760;-77
2022/11/03 03:20:58;;;;;;;14.10;7.40;;;10.20;99.90;;;;;;4983574;28;20278;-78
2022/11/03 03:23:51;;;;;;;16.73;7.53;;;10.30;99.90;;;;;;4983097;28;20321;-77
2022/11/03 03:26:44;;;;;;;15.23;7.82;;;10.30;99.90;;;;;;4983978;28;20272;-76
2022/11/03 03:29:38;;;;;;;18.60;8.57;;;10.20;99.90;;;;;;4982042;28;20242;-77
2022/11/03 03:32:31;;;;;;;13.68;7.68;;;10.20;99.90;;;;;;4962663;28;20672;-77
2022/11/03 03:35:25;;;;;;;16.30;8.18;;;10.10;99.90;;;;;;4988221;28;20230;-76
2022/11/03 03:38:18;;;;;;;17.23;8.00;;;10.10;99.90;;;;;;4966679;28;20278;-77
2022/11/03 03:41:10;;;;;;;16.00;8.00;;;10.10;99.90;;;;;;4978209;28;20314;-77
2022/11/03 03:44:02;;;;;;;18.92;8.10;;;10.00;99.90;;;;;;4984747;28;20227;-76
2022/11/03 03:46:58;;;;;;;19.85;8.55;;;10.00;99.90;;;;;;4983749;28;20860;-78
2022/11/03 03:49:46;;;;;;;19.05;8.43;;;10.00;99.90;;;;;;4985814;28;20816;-78
2022/11/03 03:52:37;;;;;;;15.75;8.23;;;10.00;99.90;;;;;;4982642;28;20720;-78
2022/11/03 03:55:34;;;;;;;17.05;8.30;;;10.10;99.90;;;;;;4984931;28;20710;-76
2022/11/03 03:58:22;;;;;;;14.77;8.20;;;10.00;99.90;;;;;;4988710;28;20230;-78
2022/11/03 04:01:12;;;;;;;12.68;7.55;;;10.00;99.90;;;;;;4983262;28;20311;-78
2022/11/03 04:04:01;;;;;;;13.80;8.23;;;10.00;99.90;;;;;;4973120;28;20223;-77
2022/11/03 04:07:45;;;;;;;16.33;7.85;;;10.00;99.90;;;;;;4985208;28;20251;-77
2022/11/03 04:09:59;;;;;;;17.33;8.90;;;10.00;99.90;;;;;;4974181;28;20238;-77
2022/11/03 04:22:17;;;;;;;15.55;8.38;;;9.70;99.90;;;;;;4996098;28;20226;-77
2022/11/03 04:25:08;;;;;;;16.30;7.45;;;9.70;99.90;;;;;;4988035;28;20242;-77
2022/11/03 04:27:56;;;;;;;12.77;7.25;;;9.70;99.90;;;;;;4969298;28;20226;-77
2022/11/03 04:30:45;;;;;;;16.67;8.25;;;9.60;99.90;;;;;;4987989;28;20356;-77
2022/11/03 04:33:33;;;;;;;18.17;8.07;;;9.60;99.90;;;;;;4982782;28;20219;-77
2022/11/03 04:36:23;;;;;;;18.02;7.90;;;9.70;99.90;;;;;;4983255;28;20230;-77
2022/11/03 04:39:18;;;;;;;16.58;8.85;;;9.70;99.90;;;;;;4980722;28;20718;-77
2022/11/03 04:42:17;;;;;;;16.83;8.05;;;9.70;99.90;;;;;;4986199;28;20366;-76
2022/11/03 04:45:15;;;;;;;17.20;8.35;;;9.60;99.90;;;;;;4979754;28;20234;-77
2022/11/03 04:48:13;;;;;;;15.38;7.90;;;9.70;99.90;;;;;;4981523;28;20218;-77
2022/11/03 04:51:11;;;;;;;17.23;8.82;;;9.60;99.90;;;;;;4985685;28;20374;-76
2022/11/03 04:54:03;;;;;;;17.00;8.68;;;9.60;99.90;;;;;;4989978;28;20304;-77
2022/11/03 04:56:52;;;;;;;20.48;8.38;;;9.40;99.90;;;;;;4987267;28;20268;-76
2022/11/03 04:59:44;;;;;;;28.48;8.52;;;9.40;99.90;;;;;;4980434;28;21290;-77
2022/11/03 05:02:33;;;;;;;16.30;8.38;;;9.50;99.90;;;;;;4967866;28;20238;-77
2022/11/03 05:05:23;;;;;;;20.60;9.00;;;9.40;99.90;;;;;;4986182;28;20226;-78
2022/11/03 05:08:13;;;;;;;18.02;8.65;;;9.50;99.90;;;;;;4988317;28;20701;-76
2022/11/03 05:11:05;;;;;;;20.90;9.02;;;9.40;99.90;;;;;;4972662;28;20227;-76
2022/11/03 05:13:54;;;;;;;20.95;9.10;;;9.40;99.90;;;;;;4984022;28;20301;-76
2022/11/03 05:16:44;;;;;;;18.75;9.05;;;9.30;99.90;;;;;;4983999;28;20728;-76
2022/11/03 05:19:36;;;;;;;20.08;9.20;;;9.50;99.90;;;;;;4982933;28;20218;-76
2022/11/03 05:22:29;;;;;;;19.73;9.73;;;9.40;99.90;;;;;;4987343;28;20744;-76
2022/11/03 05:25:34;;;;;;;17.80;9.32;;;9.40;99.90;;;;;;4986359;28;20246;-76
2022/11/03 05:28:26;;;;;;;16.27;8.85;;;9.30;99.90;;;;;;4983556;28;20235;-77
2022/11/03 05:31:21;;;;;;;17.73;8.13;;;9.30;99.90;;;;;;4981892;28;21051;-76
2022/11/03 05:34:32;;;;;;;16.48;8.40;;;9.30;99.90;;;;;;4987050;28;20223;-76
2022/11/03 05:37:28;;;;;;;16.45;8.45;;;9.30;99.90;;;;;;4988459;28;20237;-78
2022/11/03 05:40:22;;;;;;;14.95;8.95;;;9.40;99.90;;;;;;4991104;28;20226;-77
2022/11/03 05:43:14;;;;;;;19.88;8.82;;;9.40;99.90;;;;;;4987819;28;20218;-75
2022/11/03 05:46:03;;;;;;;15.93;8.73;;;9.30;99.90;;;;;;4984585;28;20229;-76
2022/11/03 05:49:00;;;;;;;19.63;8.32;;;9.30;99.90;;;;;;4982296;28;20246;-76
2022/11/03 05:51:50;;;;;;;21.05;8.98;;;9.30;99.90;;;;;;4969553;28;20227;-76
2022/11/03 05:54:39;;;;;;;18.33;9.43;;;9.30;99.90;;;;;;4985404;28;20234;-75
2022/11/03 05:57:32;;;;;;;18.95;8.57;;;9.20;99.90;;;;;;4986245;28;20230;-77
2022/11/03 06:00:32;;;;;;;18.83;8.43;;;9.20;99.90;;;;;;4971451;28;20305;-76
2022/11/03 06:03:24;;;;;;;18.65;8.45;;;9.20;99.90;;;;;;4979488;28;20222;-76
2022/11/03 06:06:18;;;;;;;22.13;8.18;;;9.30;99.90;;;;;;4981750;28;20218;-77
2022/11/03 06:09:14;;;;;;;14.32;8.60;;;9.30;99.90;;;;;;4979261;28;20757;-77
2022/11/03 06:12:06;;;;;;;18.45;9.55;;;9.40;99.90;;;;;;4983507;28;20227;-76
2022/11/03 06:14:55;;;;;;;16.48;8.95;;;9.30;99.90;;;;;;4985611;28;20234;-77
2022/11/03 06:17:43;;;;;;;20.98;9.65;;;9.40;99.90;;;;;;4985686;28;20305;-77
2022/11/03 06:20:32;;;;;;;17.02;8.32;;;9.40;99.90;;;;;;4983791;28;20253;-77
2022/11/03 06:23:21;;;;;;;18.13;8.57;;;9.40;99.90;;;;;;4985524;28;20918;-77
2022/11/03 06:26:18;;;;;;;17.50;8.15;;;9.50;99.90;;;;;;4974783;28;20227;-77
2022/11/03 06:29:12;;;;;;;15.45;8.57;;;9.50;99.90;;;;;;4978586;28;20238;-77
2022/11/03 06:32:01;;;;;;;17.65;9.13;;;9.50;99.90;;;;;;4980081;28;20230;-76
2022/11/03 06:34:52;;;;;;;23.85;8.75;;;9.40;99.90;;;;;;4981415;28;20730;-78
2022/11/03 06:37:42;;;;;;;15.15;9.30;;;9.30;99.90;;;;;;4964778;28;20243;-77
2022/11/03 06:40:34;;;;;;;15.77;8.77;;;9.40;99.90;;;;;;4982049;28;20226;-78
2022/11/03 06:43:27;;;;;;;18.73;9.18;;;9.40;99.90;;;;;;4980548;28;20691;-82
2022/11/03 06:46:21;;;;;;;18.63;8.75;;;9.40;99.90;;;;;;4981653;28;20342;-81
2022/11/03 06:49:27;;;;;;;15.68;8.43;;;9.40;99.90;;;;;;4986331;28;20321;-84
2022/11/03 06:52:27;;;;;;;15.50;9.68;;;9.40;99.90;;;;;;4978765;28;20231;-85
2022/11/03 06:55:23;;;;;;;14.85;8.32;;;9.50;99.90;;;;;;4976008;28;20254;-86
2022/11/03 06:58:17;;;;;;;16.08;8.93;;;9.60;99.90;;;;;;4984691;28;20230;-88
2022/11/03 07:01:15;;;;;;;13.35;8.68;;;9.60;99.90;;;;;;4996301;28;21019;-86
2022/11/03 07:04:14;;;;;;;18.30;9.15;;;9.60;99.90;;;;;;4965773;28;20717;-86
2022/11/03 07:07:04;;;;;;;21.10;9.68;;;9.60;99.90;;;;;;4981275;28;20381;-86
2022/11/03 07:09:54;;;;;;;19.27;9.43;;;9.70;99.90;;;;;;4982343;28;20857;-88
2022/11/03 07:12:43;;;;;;;15.43;8.68;;;9.70;99.90;;;;;;4976791;28;20223;-84
2022/11/03 07:15:36;;;;;;;16.90;9.60;;;9.80;99.90;;;;;;4978020;28;20317;-85
2022/11/03 07:18:30;;;;;;;15.65;8.38;;;9.80;99.90;;;;;;4980823;28;20245;-85
2022/11/03 07:21:34;;;;;;;21.70;9.45;;;9.90;99.90;;;;;;4981627;28;20222;-83
2022/11/03 07:24:26;;;;;;;19.83;9.85;;;9.90;99.90;;;;;;4978856;28;20597;-85
2022/11/03 07:27:21;;;;;;;13.80;8.88;;;9.90;99.90;;;;;;4981309;28;20227;-84
2022/11/03 07:30:18;;;;;;;16.60;9.13;;;10.00;99.90;;;;;;4971147;28;20222;-83
2022/11/03 07:33:14;;;;;;;17.90;11.00;;;10.10;99.90;;;;;;4967963;28;20235;-83
2022/11/03 07:36:09;;;;;;;25.58;12.65;;;10.10;99.90;;;;;;4976283;28;20226;-82
2022/11/03 07:39:04;;;;;;;18.70;9.48;;;10.20;99.90;;;;;;4982854;28;20222;-83
2022/11/03 07:41:53;;;;;;;19.73;9.02;;;10.20;99.90;;;;;;4968297;28;20222;-83
2022/11/03 07:44:41;;;;;;;20.40;8.68;;;10.20;99.90;;;;;;4976207;28;20241;-82
2022/11/03 07:47:30;;;;;;;16.77;8.95;;;10.30;99.90;;;;;;4980781;28;20227;-83
2022/11/03 07:50:20;;;;;;;16.95;8.43;;;10.40;99.90;;;;;;4984760;28;20226;-82
2022/11/03 07:53:16;;;;;;;22.00;9.18;;;10.40;99.90;;;;;;4984307;28;20755;-82
2022/11/03 07:56:19;;;;;;;17.08;8.65;;;10.40;99.90;;;;;;4984602;28;20598;-83
2022/11/03 07:59:16;;;;;;;18.40;9.20;;;10.40;99.90;;;;;;4984404;28;20223;-82
2022/11/03 08:02:25;;;;;;;16.80;8.57;;;10.50;99.90;;;;;;4975493;28;20374;-83
2022/11/03 08:05:14;;;;;;;12.80;8.25;;;10.50;99.90;;;;;;4982323;28;21389;-83
2022/11/03 08:08:02;;;;;;;17.75;9.05;;;10.50;99.90;;;;;;4981648;28;20242;-82
2022/11/03 08:10:53;;;;;;;12.63;7.85;;;10.60;99.90;;;;;;4978436;28;20231;-81
2022/11/03 08:13:42;;;;;;;15.10;8.30;;;10.60;99.90;;;;;;4976427;28;20234;-81
2022/11/03 08:16:31;;;;;;;17.05;8.10;;;10.60;99.90;;;;;;4976426;28;20231;-82
2022/11/03 08:19:19;;;;;;;18.13;8.18;;;10.60;99.90;;;;;;4980900;28;20223;-83
2022/11/03 08:22:08;;;;;;;21.27;8.57;;;10.70;99.90;;;;;;4978763;28;20232;-86
2022/11/03 08:24:57;;;;;;;16.60;8.48;;;10.70;99.90;;;;;;4961783;28;20230;-82
2022/11/03 08:27:47;;;;;;;20.52;8.20;;;10.70;99.90;;;;;;4979056;28;20853;-84
2022/11/03 08:30:36;;;;;;;11.80;8.02;;;10.80;99.90;;;;;;4976070;28;20222;-83
2022/11/03 08:33:25;;;;;;;17.02;8.43;;;10.80;99.90;;;;;;4971850;28;20238;-81
2022/11/03 08:36:14;;;;;;;15.95;7.82;;;10.90;99.90;;;;;;4983846;28;20254;-81
2022/11/03 08:39:02;;;;;;;22.45;8.38;;;10.90;99.90;;;;;;4983589;28;20598;-81
2022/11/03 08:41:51;;;;;;;21.90;8.45;;;11.00;99.90;;;;;;4972110;28;20588;-81
2022/11/03 08:44:41;;;;;;;16.77;7.55;;;11.00;99.90;;;;;;4977699;28;20231;-82
2022/11/03 08:47:30;;;;;;;19.23;8.60;;;11.10;99.90;;;;;;4987917;28;20500;-81
2022/11/03 08:50:19;;;;;;;15.10;7.45;;;11.10;99.90;;;;;;4965596;28;20597;-85
2022/11/03 08:53:07;;;;;;;16.35;7.60;;;11.10;99.90;;;;;;4983471;28;20236;-82
2022/11/03 08:55:56;;;;;;;17.40;7.43;;;11.20;99.90;;;;;;4983410;28;20286;-82
2022/11/03 08:58:45;;;;;;;16.92;6.68;;;11.30;99.90;;;;;;4983945;28;20215;-82
2022/11/03 09:01:35;;;;;;;19.20;7.40;;;11.30;99.90;;;;;;4978218;28;20250;-88
2022/11/03 09:04:25;;;;;;;13.98;7.43;;;11.40;99.90;;;;;;4978206;28;20242;-86
2022/11/03 09:07:14;;;;;;;17.55;6.60;;;11.40;99.90;;;;;;4982449;28;20707;-84
2022/11/03 09:10:03;;;;;;;15.10;6.18;;;11.40;99.90;;;;;;4975763;28;20225;-81
2022/11/03 09:13:11;;;;;;;15.27;6.22;;;11.50;99.90;;;;;;4979243;28;20310;-81
2022/11/03 09:16:00;;;;;;;16.40;6.70;;;11.50;99.90;;;;;;4970207;28;20242;-80
2022/11/03 09:18:50;;;;;;;15.68;6.82;;;11.60;99.90;;;;;;4969346;28;20614;-83
2022/11/03 09:21:39;;;;;;;23.48;11.95;;;11.60;99.90;;;;;;4963504;28;20234;-81
2022/11/03 09:24:29;;;;;;;16.48;7.97;;;11.60;99.90;;;;;;4984473;28;20223;-82
2022/11/03 09:27:18;;;;;;;19.63;7.28;;;11.60;99.90;;;;;;4980847;28;20227;-81
2022/11/03 09:30:07;;;;;;;14.13;6.47;;;11.60;99.90;;;;;;4967011;28;20756;-83
2022/11/03 09:33:02;;;;;;;18.63;6.28;;;11.70;99.90;;;;;;4980268;28;20234;-82
2022/11/03 09:35:52;;;;;;;17.27;5.63;;;11.70;99.90;;;;;;4984027;28;20230;-83
2022/11/03 09:38:40;;;;;;;10.35;4.63;;;11.80;99.90;;;;;;4982632;28;20219;-82
2022/11/03 09:41:30;;;;;;;13.63;4.40;;;11.80;99.90;;;;;;4980198;28;20230;-82
2022/11/03 09:44:39;;;;;;;15.05;5.30;;;11.80;99.90;;;;;;4977970;28;20318;-81
2022/11/03 09:47:34;;;;;;;13.88;6.07;;;11.90;99.90;;;;;;4983538;28;20233;-81
2022/11/03 09:50:22;;;;;;;14.65;6.70;;;11.90;99.90;;;;;;4982743;28;20230;-82
2022/11/03 09:53:14;;;;;;;15.77;7.05;;;12.00;99.90;;;;;;4967271;28;20227;-81
2022/11/03 09:56:02;;;;;;;16.65;6.70;;;12.00;99.90;;;;;;4977045;28;20316;-82
2022/11/03 09:58:51;;;;;;;16.90;5.85;;;12.00;99.90;;;;;;4981987;28;20215;-82
2022/11/03 10:01:44;;;;;;;18.00;6.05;;;12.10;99.90;;;;;;4968513;28;20602;-83
2022/11/03 10:04:33;;;;;;;14.82;4.90;;;12.00;99.90;;;;;;4976176;28;20226;-82
2022/11/03 10:07:22;;;;;;;17.13;8.85;;;12.10;99.90;;;;;;4964851;28;20230;-82
2022/11/03 10:10:20;;;;;;;23.73;4.97;;;12.20;99.90;;;;;;4968093;28;20211;-82
2022/11/03 10:13:12;;;;;;;16.83;6.80;;;12.20;99.90;;;;;;4981850;28;20231;-81
2022/11/03 10:16:02;;;;;;;15.10;5.10;;;12.20;99.90;;;;;;4981562;28;20757;-81
2022/11/03 10:18:51;;;;;;;16.58;5.40;;;12.20;99.90;;;;;;4964628;28;20232;-82
2022/11/03 10:21:41;;;;;;;15.02;4.63;;;12.30;99.90;;;;;;4978487;28;20220;-83
2022/11/03 10:24:30;;;;;;;13.98;5.28;;;12.30;99.90;;;;;;4978884;28;20230;-81
2022/11/03 10:27:24;;;;;;;15.10;5.13;;;12.30;99.90;;;;;;4957397;28;20294;-83
2022/11/03 10:30:13;;;;;;;16.00;5.05;;;12.30;99.90;;;;;;4965974;28;20218;-82
2022/11/03 10:33:02;;;;;;;18.45;4.80;;;12.40;99.90;;;;;;4982999;28;20231;-82
2022/11/03 10:35:51;;;;;;;13.90;4.40;;;12.40;99.90;;;;;;4978810;28;20880;-82
2022/11/03 10:38:40;;;;;;;15.77;5.18;;;12.30;99.90;;;;;;4980879;28;20227;-82
2022/11/03 10:41:30;;;;;;;13.82;4.97;;;12.40;99.90;;;;;;4967032;28;20234;-82
2022/11/03 10:44:20;;;;;;;15.32;4.45;;;12.50;99.90;;;;;;4981716;28;20237;-83
2022/11/03 10:47:23;;;;;;;13.18;4.28;;;12.50;99.90;;;;;;4983120;28;20215;-84
2022/11/03 10:50:24;;;;;;;16.35;4.90;;;12.60;99.90;;;;;;4979747;28;20222;-82
2022/11/03 10:53:19;;;;;;;12.48;3.58;;;12.60;99.90;;;;;;4975733;28;20230;-82
2022/11/03 10:56:08;;;;;;;19.92;4.82;;;12.60;99.90;;;;;;4976899;28;20226;-83
2022/11/03 10:58:59;;;;;;;14.27;3.13;;;12.60;99.90;;;;;;4979963;28;20575;-83
2022/11/03 11:01:50;;;;;;;10.48;3.47;;;12.70;99.90;;;;;;4980360;28;20223;-84
2022/11/03 11:04:39;;;;;;;12.35;3.10;;;12.70;99.90;;;;;;4965567;28;20365;-84
2022/11/03 11:07:32;;;;;;;14.35;3.20;;;12.70;99.90;;;;;;4978842;28;20234;-83
2022/11/03 11:10:23;;;;;;;14.93;3.25;;;12.70;99.90;;;;;;4981864;28;20329;-83
2022/11/03 11:13:26;;;;;;;10.27;3.00;;;12.80;99.90;;;;;;4968119;28;20227;-84
2022/11/03 11:16:50;;;;;;;11.73;2.95;;;12.80;99.90;;;;;;4976268;28;20713;-82
2022/11/03 11:20:28;;;;;;;10.73;2.80;;;12.90;99.90;;;;;;4976103;28;20226;-82
2022/11/03 11:23:51;;;;;;;11.77;2.88;;;12.90;99.90;;;;;;4963364;28;20241;-88
2022/11/03 11:26:41;;;;;;;8.95;2.22;;;12.90;99.90;;;;;;4976630;28;20222;-86
2022/11/03 11:29:38;;;;;;;7.57;2.05;;;12.80;99.90;;;;;;4991735;28;20226;-88
2022/11/03 11:32:59;;;;;;;9.07;2.20;;;12.90;99.90;;;;;;4982200;28;20215;-88
2022/11/03 11:36:26;;;;;;;10.27;2.20;;;12.90;99.90;;;;;;4992446;28;20235;-91
2022/11/03 11:39:45;;;;;;;7.38;2.92;;;12.90;99.90;;;;;;4989532;28;20223;-89
2022/11/03 11:42:34;;;;;;;10.18;2.45;;;13.00;99.90;;;;;;4988545;28;20225;-90
2022/11/03 11:45:59;;;;;;;18.65;2.50;;;13.00;99.90;;;;;;4993130;28;20308;-90
2022/11/03 11:49:14;;;;;;;7.55;2.03;;;13.10;99.90;;;;;;4981203;28;20234;-90
2022/11/03 11:52:03;;;;;;;11.90;2.00;;;13.10;99.90;;;;;;4992704;28;20241;-90
2022/11/03 11:54:52;;;;;;;8.00;2.10;;;13.20;99.90;;;;;;4984134;28;20215;-91
2022/11/03 11:57:41;;;;;;;6.43;1.95;;;13.20;99.90;;;;;;4981537;28;20227;-90
2022/11/03 12:00:32;;;;;;;6.78;2.38;;;13.30;99.90;;;;;;4989804;28;20219;-90
2022/11/03 12:03:28;;;;;;;9.48;2.20;;;13.30;99.90;;;;;;5013454;28;20279;-91
2022/11/03 12:06:33;;;;;;;8.77;2.05;;;13.30;99.90;;;;;;4996477;28;20287;-91
2022/11/03 12:09:25;;;;;;;13.68;2.40;;;13.30;99.90;;;;;;5009980;28;20233;-91
2022/11/03 12:12:34;;;;;;;11.65;2.75;;;13.40;99.90;;;;;;4999743;28;22543;-91
2022/11/03 12:15:48;;;;;;;6.47;2.30;;;13.40;99.90;;;;;;4997096;28;20222;-92
2022/11/03 12:18:38;;;;;;;10.65;2.55;;;13.40;99.90;;;;;;4991781;28;20222;-91
2022/11/03 12:21:50;;;;;;;9.40;2.30;;;13.40;99.90;;;;;;5007514;28;20249;-91
2022/11/03 12:24:52;;;;;;;11.70;2.60;;;13.50;99.90;;;;;;5018188;28;20215;-91
2022/11/03 12:27:44;;;;;;;11.48;2.13;;;13.60;99.90;;;;;;5021916;28;20230;-90
2022/11/03 12:30:33;;;;;;;12.48;2.90;;;13.60;99.90;;;;;;4988639;28;20219;-91
2022/11/03 12:33:27;;;;;;;8.68;2.33;;;13.60;99.90;;;;;;5009661;28;20241;-89
2022/11/03 12:36:16;;;;;;;7.68;1.98;;;13.60;99.90;;;;;;4997717;28;20686;-91
2022/11/03 12:39:07;;;;;;;5.05;1.90;;;13.60;99.90;;;;;;5007813;28;20220;-90
2022/11/03 12:41:56;;;;;;;7.85;1.88;;;13.60;99.90;;;;;;4997730;28;20207;-89
2022/11/03 12:44:45;;;;;;;8.05;1.73;;;13.60;99.90;;;;;;5006275;28;20245;-89
2022/11/03 12:47:34;;;;;;;11.68;2.25;;;13.60;99.90;;;;;;5004282;28;20260;-91
2022/11/03 12:50:23;;;;;;;11.48;2.30;;;13.60;99.90;;;;;;5006293;28;20226;-90
2022/11/03 12:53:12;;;;;;;5.85;2.35;;;13.60;99.90;;;;;;5001055;28;20224;-90
2022/11/03 12:56:03;;;;;;;6.72;2.00;;;13.60;99.90;;;;;;5000684;28;20238;-90
2022/11/03 12:58:51;;;;;;;12.43;2.20;;;13.60;99.90;;;;;;5000940;28;20250;-89
2022/11/03 13:01:40;;;;;;;5.15;2.00;;;13.60;99.90;;;;;;4996659;28;20302;-91
2022/11/03 13:04:30;;;;;;;7.07;2.08;;;13.60;99.90;;;;;;5004915;28;20226;-88
2022/11/03 13:07:19;;;;;;;9.05;2.17;;;13.60;99.90;;;;;;5009062;28;20227;-88
2022/11/03 13:10:16;;;;;;;9.98;1.85;;;13.50;99.90;;;;;;4972116;28;20219;-90
2022/11/03 13:13:07;;;;;;;8.95;2.58;;;13.60;99.90;;;;;;4986050;28;20227;-90
2022/11/03 13:15:56;;;;;;;9.10;2.40;;;13.50;99.90;;;;;;4993166;28;20230;-89
2022/11/03 13:18:45;;;;;;;8.00;2.25;;;13.50;99.90;;;;;;4997228;28;20225;-90
2022/11/03 13:21:34;;;;;;;9.38;2.10;;;13.50;99.90;;;;;;4978097;28;20227;-90
2022/11/03 13:24:23;;;;;;;11.40;2.33;;;13.40;99.90;;;;;;4986255;28;20227;-90
2022/11/03 13:27:12;;;;;;;7.63;2.17;;;13.40;99.90;;;;;;4977739;28;20219;-91
2022/11/03 13:30:02;;;;;;;9.20;2.13;;;13.40;99.90;;;;;;4985316;28;20353;-89
2022/11/03 13:32:51;;;;;;;7.20;1.98;;;13.40;99.90;;;;;;4991164;28;20253;-90
2022/11/03 13:35:40;;;;;;;9.02;2.13;;;13.40;99.90;;;;;;5006579;28;20230;-91
2022/11/03 13:38:29;;;;;;;8.73;2.15;;;13.40;99.90;;;;;;4995089;28;20274;-90
2022/11/03 13:41:18;;;;;;;5.57;2.50;;;13.50;99.90;;;;;;5004536;28;20227;-91
2022/11/03 13:44:08;;;;;;;11.93;2.55;;;13.50;99.90;;;;;;4992606;28;20223;-89
2022/11/03 13:46:59;;;;;;;11.20;2.53;;;13.40;99.90;;;;;;5003572;28;20230;-90
2022/11/03 13:49:51;;;;;;;9.45;2.10;;;13.40;99.90;;;;;;5006255;28;20227;-89
2022/11/03 13:53:00;;;;;;;6.60;1.98;;;13.40;99.90;;;;;;5002524;28;20242;-89
2022/11/03 13:56:08;;;;;;;9.95;2.05;;;13.30;99.90;;;;;;5001794;28;20222;-90
2022/11/03 13:59:07;;;;;;;10.70;2.53;;;13.30;99.90;;;;;;4997326;28;20730;-89
2022/11/03 14:02:13;;;;;;;10.00;2.65;;;13.30;99.90;;;;;;5001687;28;20227;-90
2022/11/03 14:05:22;;;;;;;7.35;2.30;;;13.30;99.90;;;;;;4986435;28;20234;-89
2022/11/03 14:08:11;;;;;;;17.92;2.58;;;13.20;99.90;;;;;;4992060;28;20296;-89
2022/11/03 14:12:29;;;;;;;10.63;2.20;;;13.20;99.90;;;;;;4996579;28;20310;-89
2022/11/03 14:14:08;;;;;;;9.57;2.45;;;13.10;99.90;;;;;;4992100;28;20337;-90
2022/11/03 14:16:57;;;;;;;12.60;2.60;;;13.10;99.90;;;;;;4994513;28;20219;-89
2022/11/03 14:19:48;;;;;;;13.52;2.60;;;13.10;99.90;;;;;;4982097;28;20796;-88
2022/11/03 14:22:41;;;;;;;12.45;2.67;;;13.00;99.90;;;;;;4971565;28;20227;-89
2022/11/03 14:25:29;;;;;;;10.35;2.40;;;13.00;99.90;;;;;;4978552;28;20219;-91
2022/11/03 14:28:18;;;;;;;9.65;2.40;;;13.00;99.90;;;;;;4980137;28;20231;-90
2022/11/03 14:31:13;;;;;;;7.93;2.45;;;13.00;99.90;;;;;;5011419;28;20290;-90
2022/11/03 14:34:04;;;;;;;13.05;2.42;;;13.00;99.90;;;;;;4992926;28;20709;-90
2022/11/03 14:36:54;;;;;;;8.77;2.00;;;13.10;99.90;;;;;;5006333;28;20219;-90
2022/11/03 14:39:43;;;;;;;9.05;2.00;;;13.00;99.90;;;;;;4997807;28;20218;-90
2022/11/03 14:42:31;;;;;;;8.60;2.05;;;12.90;99.90;;;;;;4991822;28;20233;-90
2022/11/03 14:45:20;;;;;;;8.82;3.03;;;13.00;99.90;;;;;;4968579;28;20224;-90
2022/11/03 14:48:09;;;;;;;7.38;2.10;;;12.90;99.90;;;;;;4990341;28;20227;-90
2022/11/03 14:50:58;;;;;;;13.43;2.60;;;12.90;99.90;;;;;;4978456;28;20229;-90
2022/11/03 14:53:48;;;;;;;8.40;2.67;;;12.90;99.90;;;;;;4996603;28;20370;-90
2022/11/03 14:56:37;;;;;;;10.15;3.42;;;12.90;99.90;;;;;;4970827;28;21276;-90
2022/11/03 14:59:26;;;;;;;7.95;2.75;;;12.90;99.90;;;;;;4987553;28;20310;-90
2022/11/03 15:02:15;;;;;;;8.70;2.53;;;12.80;99.90;;;;;;4992402;28;20690;-90
2022/11/03 15:05:04;;;;;;;8.07;2.63;;;12.80;99.90;;;;;;4986222;28;20267;-90
2022/11/03 15:07:53;;;;;;;14.85;3.78;;;12.80;99.90;;;;;;4983986;28;20226;-90
2022/11/03 15:10:43;;;;;;;8.60;3.10;;;12.80;99.90;;;;;;4980075;28;20226;-90